Time;durP1;ratioP1;P1;durP2;ratioP2;P2;SDS_P1;SDS_P2;PMS_P1;PMS_P2;Temp;Humidity;BMP_temperature;BMP_pressure;BME280_temperature;BME280_humidity;BME280_pressure;Samples;Min_cycle;Max_cycle;Signal;HPM_P1;HPM_P2
2023/03/15 00:00:24;;;;;;;2.80;1.90;;;8.60;59.70;;;;;;5034528;28;20451;-86
2023/03/15 00:02:51;;;;;;;3.97;2.87;;;8.60;59.30;;;;;;5065938;28;20436;-88
2023/03/15 00:05:20;;;;;;;5.20;2.20;;;8.50;59.40;;;;;;5026828;28;20783;-87
2023/03/15 00:07:47;;;;;;;4.30;2.53;;;8.40;59.70;;;;;;5018662;28;20448;-85
2023/03/15 00:10:14;;;;;;;4.43;1.97;;;8.30;59.70;;;;;;5066785;28;20458;-87
2023/03/15 00:12:42;;;;;;;3.83;2.77;;;8.30;59.70;;;;;;5041833;28;20456;-87
2023/03/15 00:15:12;;;;;;;4.00;2.37;;;8.30;59.80;;;;;;5059321;28;20476;-86
2023/03/15 00:17:39;;;;;;;4.53;2.40;;;8.30;59.90;;;;;;5023641;28;20456;-86
2023/03/15 00:20:07;;;;;;;2.70;1.73;;;8.30;59.90;;;;;;5060044;28;20449;-87
2023/03/15 00:22:35;;;;;;;2.40;1.40;;;8.10;60.20;;;;;;5051047;28;20448;-88
2023/03/15 00:25:03;;;;;;;2.63;1.67;;;7.80;61.30;;;;;;5041855;28;20988;-86
2023/03/15 00:27:30;;;;;;;4.83;3.13;;;7.80;61.60;;;;;;5036320;28;20524;-86
2023/03/15 00:29:57;;;;;;;3.13;1.93;;;8.00;61.60;;;;;;5022342;28;20991;-86
2023/03/15 00:32:24;;;;;;;3.50;2.00;;;7.90;61.60;;;;;;5069046;28;20471;-87
2023/03/15 00:34:53;;;;;;;3.43;2.00;;;7.90;62.00;;;;;;5068452;28;20490;-87
2023/03/15 00:37:20;;;;;;;2.13;1.93;;;8.10;61.20;;;;;;5043603;28;20448;-87
2023/03/15 00:39:48;;;;;;;6.13;2.70;;;7.80;61.60;;;;;;5052371;28;20463;-88
2023/03/15 00:42:15;;;;;;;3.73;2.00;;;7.80;61.90;;;;;;5036314;28;20829;-86
2023/03/15 00:44:43;;;;;;;3.00;1.87;;;8.00;61.80;;;;;;5034447;28;20517;-87
2023/03/15 00:47:11;;;;;;;6.20;2.87;;;8.30;61.40;;;;;;5044592;28;20842;-88
2023/03/15 00:49:38;;;;;;;4.63;2.40;;;8.40;61.20;;;;;;5019029;28;20447;-87
2023/03/15 00:52:06;;;;;;;4.80;2.87;;;8.30;59.60;;;;;;5043693;28;20784;-85
2023/03/15 00:54:33;;;;;;;4.50;2.80;;;8.40;59.60;;;;;;5035479;28;20467;-87
2023/03/15 00:57:03;;;;;;;6.33;2.73;;;8.30;59.70;;;;;;5066887;28;20446;-87
2023/03/15 00:59:33;;;;;;;3.30;2.47;;;8.40;60.00;;;;;;5056361;28;20814;-86
2023/03/15 01:02:00;;;;;;;4.90;3.20;;;8.60;59.40;;;;;;5025025;28;20444;-87
2023/03/15 01:04:27;;;;;;;6.27;2.43;;;8.70;59.30;;;;;;5018076;28;20472;-87
2023/03/15 01:06:54;;;;;;;5.10;3.20;;;8.60;58.80;;;;;;5054979;28;20471;-86
2023/03/15 01:09:21;;;;;;;5.00;3.20;;;8.50;59.20;;;;;;5034152;28;20466;-87
2023/03/15 01:11:49;;;;;;;3.97;2.80;;;8.50;59.20;;;;;;5057054;28;21624;-87
2023/03/15 01:14:17;;;;;;;5.90;3.07;;;8.40;59.80;;;;;;5036108;28;20471;-87
2023/03/15 01:16:44;;;;;;;6.90;3.40;;;8.30;58.90;;;;;;5034617;28;20984;-87
2023/03/15 01:19:12;;;;;;;4.43;3.57;;;8.20;59.10;;;;;;5066406;28;20456;-87
2023/03/15 01:21:39;;;;;;;8.70;3.67;;;8.10;59.20;;;;;;5055864;28;20523;-87
2023/03/15 01:24:07;;;;;;;10.10;4.63;;;8.00;59.60;;;;;;5034297;28;20491;-87
2023/03/15 01:26:34;;;;;;;3.50;2.70;;;8.10;59.80;;;;;;5047998;28;20479;-87
2023/03/15 01:29:01;;;;;;;7.60;3.63;;;7.90;59.50;;;;;;5041911;28;20780;-88
2023/03/15 01:31:30;;;;;;;8.80;3.10;;;8.00;60.40;;;;;;5033146;28;20461;-87
2023/03/15 01:33:59;;;;;;;7.07;2.73;;;8.10;60.00;;;;;;5058925;28;20471;-86
2023/03/15 01:36:29;;;;;;;5.90;2.60;;;8.20;59.80;;;;;;5056032;28;20451;-86
2023/03/15 01:38:56;;;;;;;5.27;3.33;;;8.40;59.20;;;;;;5051510;28;20564;-88
2023/03/15 01:41:33;;;;;;;5.87;3.57;;;8.30;58.70;;;;;;5022045;28;20539;-86
2023/03/15 01:44:00;;;;;;;5.10;3.27;;;8.30;59.10;;;;;;5058422;28;20472;-87
2023/03/15 01:46:32;;;;;;;4.30;3.20;;;8.30;58.80;;;;;;5041749;28;20909;-87
2023/03/15 01:49:12;;;;;;;7.43;3.73;;;8.30;59.10;;;;;;5051774;28;20444;-87
2023/03/15 01:51:45;;;;;;;4.13;3.23;;;8.10;59.20;;;;;;5047561;28;20509;-88
2023/03/15 01:54:16;;;;;;;7.30;4.07;;;8.10;59.10;;;;;;5060139;28;20836;-87
2023/03/15 01:56:47;;;;;;;7.97;4.30;;;8.10;59.30;;;;;;5067648;28;22078;-87
2023/03/15 01:59:17;;;;;;;11.03;3.17;;;8.20;59.20;;;;;;5060029;28;20440;-88
2023/03/15 02:01:49;;;;;;;7.53;3.60;;;8.20;59.20;;;;;;5029883;28;20452;-88
2023/03/15 02:04:23;;;;;;;10.60;4.70;;;7.90;59.70;;;;;;5043948;28;20874;-87
2023/03/15 02:06:58;;;;;;;4.37;3.40;;;8.00;60.00;;;;;;5060368;28;20471;-87
2023/03/15 02:09:35;;;;;;;7.03;3.33;;;7.90;58.90;;;;;;5032032;28;20480;-87
2023/03/15 02:12:03;;;;;;;6.93;3.47;;;7.80;59.40;;;;;;5042833;28;20815;-88
2023/03/15 02:14:32;;;;;;;9.23;3.73;;;7.80;59.90;;;;;;5062960;28;20472;-85
2023/03/15 02:17:02;;;;;;;5.30;4.57;;;7.70;59.90;;;;;;5024694;28;20437;-87
2023/03/15 02:19:41;;;;;;;12.57;3.93;;;7.60;60.30;;;;;;5030490;28;20470;-87
2023/03/15 02:22:21;;;;;;;10.50;4.40;;;7.70;60.10;;;;;;5062112;28;20504;-86
2023/03/15 02:24:54;;;;;;;7.20;3.70;;;7.80;59.70;;;;;;5057979;28;20463;-87
2023/03/15 02:27:30;;;;;;;6.67;4.07;;;7.70;59.60;;;;;;5049006;28;20567;-87
2023/03/15 02:29:57;;;;;;;5.33;3.00;;;7.80;59.60;;;;;;5074066;28;20448;-88
2023/03/15 02:32:24;;;;;;;11.73;3.90;;;7.50;59.50;;;;;;5039168;28;20478;-88
2023/03/15 02:34:51;;;;;;;5.00;3.33;;;7.40;61.10;;;;;;5032274;28;21081;-87
2023/03/15 02:37:18;;;;;;;7.30;3.93;;;7.40;60.70;;;;;;5043296;28;20438;-87
2023/03/15 02:39:46;;;;;;;8.87;3.70;;;7.40;60.00;;;;;;5042942;28;23050;-88
2023/03/15 02:42:14;;;;;;;10.43;3.53;;;7.50;60.20;;;;;;5044939;28;20443;-87
2023/03/15 02:44:45;;;;;;;4.13;3.10;;;7.60;60.10;;;;;;5043023;28;20835;-87
2023/03/15 02:47:17;;;;;;;13.10;5.10;;;7.60;59.50;;;;;;5046697;28;21066;-87
2023/03/15 02:49:49;;;;;;;8.13;2.80;;;7.60;59.70;;;;;;5052838;28;20441;-88
2023/03/15 02:52:16;;;;;;;8.67;3.53;;;7.50;59.40;;;;;;5068954;28;20970;-87
2023/03/15 02:54:43;;;;;;;5.93;3.70;;;7.60;59.20;;;;;;5026399;28;20495;-88
2023/03/15 02:57:10;;;;;;;7.07;3.40;;;7.80;59.30;;;;;;5050803;28;20448;-87
2023/03/15 02:59:37;;;;;;;8.43;3.30;;;7.70;58.50;;;;;;5034811;28;20463;-87
2023/03/15 03:02:06;;;;;;;9.07;3.37;;;7.60;58.40;;;;;;5037122;28;20482;-87
2023/03/15 03:04:34;;;;;;;6.17;3.30;;;7.60;58.80;;;;;;5019296;28;21011;-86
2023/03/15 03:07:01;;;;;;;4.87;2.30;;;7.70;58.80;;;;;;5054139;28;20476;-88
2023/03/15 03:09:36;;;;;;;6.30;3.30;;;7.80;58.30;;;;;;5065547;28;20961;-86
2023/03/15 03:12:03;;;;;;;5.80;3.80;;;7.70;58.40;;;;;;5045333;28;20486;-87
2023/03/15 03:14:32;;;;;;;5.33;3.20;;;7.70;58.30;;;;;;5026698;28;20563;-87
2023/03/15 03:17:00;;;;;;;6.87;3.27;;;7.60;59.00;;;;;;5028466;28;20429;-84
2023/03/15 03:19:28;;;;;;;4.40;2.63;;;7.70;57.90;;;;;;5026510;28;20544;-86
2023/03/15 03:21:56;;;;;;;4.30;3.43;;;7.80;57.70;;;;;;5053261;28;20855;-87
2023/03/15 03:24:24;;;;;;;7.50;2.90;;;7.40;57.60;;;;;;5061158;28;20455;-85
2023/03/15 03:26:56;;;;;;;7.73;3.50;;;7.30;58.00;;;;;;5026225;28;20981;-86
2023/03/15 03:29:26;;;;;;;6.40;3.20;;;7.50;58.30;;;;;;5053083;28;20453;-87
2023/03/15 03:31:54;;;;;;;5.63;2.80;;;7.30;58.40;;;;;;5044923;28;20505;-85
2023/03/15 03:34:22;;;;;;;5.80;2.90;;;7.20;58.50;;;;;;5069225;28;20894;-86
2023/03/15 03:36:52;;;;;;;8.23;3.70;;;7.20;58.80;;;;;;5042651;28;20981;-87
2023/03/15 03:39:29;;;;;;;12.53;3.20;;;7.10;58.70;;;;;;5036964;28;20529;-85
2023/03/15 03:42:00;;;;;;;10.20;3.00;;;7.10;58.50;;;;;;5043452;28;20468;-85
2023/03/15 03:44:27;;;;;;;4.70;2.20;;;6.80;58.60;;;;;;5037778;28;21072;-86
2023/03/15 03:46:54;;;;;;;5.07;1.87;;;6.70;59.20;;;;;;5026138;28;20893;-88
2023/03/15 03:49:21;;;;;;;24.23;3.27;;;7.00;59.30;;;;;;5037251;28;20450;-88
2023/03/15 03:51:48;;;;;;;10.13;3.63;;;7.20;58.80;;;;;;5025998;28;20456;-88
2023/03/15 03:54:16;;;;;;;6.23;3.20;;;7.30;58.10;;;;;;5045244;28;20468;-87
2023/03/15 03:56:43;;;;;;;4.63;2.00;;;7.30;58.50;;;;;;5056755;28;20937;-87
2023/03/15 03:59:10;;;;;;;5.23;2.50;;;7.20;58.10;;;;;;5027205;28;20452;-88
2023/03/15 04:01:47;;;;;;;2.90;2.40;;;7.20;57.80;;;;;;5043132;28;20484;-88
2023/03/15 04:04:14;;;;;;;4.17;2.07;;;7.20;57.90;;;;;;5045754;28;20464;-88
2023/03/15 04:06:44;;;;;;;3.70;1.83;;;7.20;57.90;;;;;;5057640;28;20991;-87
2023/03/15 04:09:12;;;;;;;6.30;2.23;;;7.30;57.90;;;;;;5044024;28;20456;-88
2023/03/15 04:11:44;;;;;;;12.03;2.67;;;7.40;57.30;;;;;;5034665;28;20473;-87
2023/03/15 04:14:11;;;;;;;6.07;2.93;;;7.40;57.50;;;;;;5039514;28;20478;-87
2023/03/15 04:16:39;;;;;;;6.80;3.17;;;7.20;57.30;;;;;;5052469;28;20475;-85
2023/03/15 04:19:09;;;;;;;10.70;2.57;;;7.20;57.90;;;;;;5023045;28;20456;-88
2023/03/15 04:21:37;;;;;;;13.63;3.30;;;7.30;57.40;;;;;;5047776;28;20447;-87
2023/03/15 04:24:26;;;;;;;5.63;2.77;;;7.30;57.00;;;;;;5044671;28;21007;-87
2023/03/15 04:27:24;;;;;;;6.03;2.00;;;7.20;57.00;;;;;;4990670;28;20670;-87
2023/03/15 04:30:25;;;;;;;7.83;3.00;;;7.10;57.00;;;;;;5058191;28;20444;-86
2023/03/15 04:33:28;;;;;;;5.13;2.30;;;7.00;57.30;;;;;;5020632;28;20960;-87
2023/03/15 04:36:17;;;;;;;9.20;4.10;;;6.70;57.50;;;;;;5035155;28;20945;-87
2023/03/15 04:39:11;;;;;;;10.03;2.80;;;6.60;58.20;;;;;;5049998;28;20579;-88
2023/03/15 04:41:56;;;;;;;8.90;2.73;;;6.70;57.80;;;;;;5040071;28;20781;-88
2023/03/15 04:44:31;;;;;;;6.43;2.20;;;6.50;58.00;;;;;;5051377;28;20475;-87
2023/03/15 04:47:17;;;;;;;8.53;2.60;;;6.30;58.50;;;;;;5067602;28;20480;-88
2023/03/15 04:49:55;;;;;;;4.07;1.90;;;6.40;58.40;;;;;;5065462;28;20618;-88
2023/03/15 04:52:25;;;;;;;6.43;1.97;;;6.30;58.10;;;;;;5039306;28;20818;-87
2023/03/15 04:55:05;;;;;;;8.43;2.10;;;6.30;58.20;;;;;;5050298;28;20463;-88
2023/03/15 04:57:44;;;;;;;2.67;1.97;;;6.20;58.50;;;;;;5018196;28;20497;-87
2023/03/15 05:00:21;;;;;;;4.17;2.00;;;6.10;58.10;;;;;;5021864;28;20496;-88
2023/03/15 05:03:03;;;;;;;4.43;2.50;;;5.70;58.90;;;;;;5034968;28;20483;-85
2023/03/15 05:06:06;;;;;;;4.80;2.00;;;5.50;59.60;;;;;;5024806;28;20445;-87
2023/03/15 05:08:52;;;;;;;5.83;2.83;;;5.50;60.10;;;;;;5032030;28;20798;-88
2023/03/15 05:11:54;;;;;;;8.37;4.37;;;5.80;59.30;;;;;;4973866;28;20983;-87
2023/03/15 05:14:49;;;;;;;4.13;2.47;;;6.10;59.00;;;;;;5019700;28;20459;-87
2023/03/15 05:17:47;;;;;;;4.90;2.63;;;6.00;57.80;;;;;;5021851;28;20455;-88
2023/03/15 05:20:37;;;;;;;11.73;2.70;;;5.60;58.70;;;;;;5065179;28;20455;-85
2023/03/15 05:23:27;;;;;;;5.90;2.00;;;5.70;59.30;;;;;;5027379;28;20479;-87
2023/03/15 05:26:13;;;;;;;5.23;3.07;;;5.80;58.30;;;;;;5050638;28;20455;-86
2023/03/15 05:29:07;;;;;;;8.13;2.23;;;5.70;58.60;;;;;;5021769;28;20436;-86
2023/03/15 05:32:09;;;;;;;3.77;2.47;;;5.30;59.90;;;;;;5015817;28;20485;-87
2023/03/15 05:34:41;;;;;;;5.03;2.60;;;5.50;59.80;;;;;;5037084;28;20475;-86
2023/03/15 05:37:22;;;;;;;3.13;2.13;;;5.70;59.20;;;;;;5044436;28;20483;-87
2023/03/15 05:40:10;;;;;;;10.47;5.00;;;5.70;59.50;;;;;;5051783;28;20527;-84
2023/03/15 05:42:50;;;;;;;9.10;5.10;;;5.80;59.00;;;;;;5042426;28;20698;-86
2023/03/15 05:45:47;;;;;;;13.67;5.40;;;5.90;59.10;;;;;;5045904;28;20459;-86
2023/03/15 05:48:33;;;;;;;11.20;5.07;;;5.70;59.30;;;;;;5034818;28;20605;-86
2023/03/15 05:51:14;;;;;;;8.60;4.03;;;5.70;59.80;;;;;;5022475;28;20452;-86
2023/03/15 05:53:51;;;;;;;3.80;3.20;;;5.70;59.40;;;;;;5053311;28;20559;-88
2023/03/15 05:56:44;;;;;;;5.30;3.50;;;5.80;59.60;;;;;;5033502;28;20861;-86
2023/03/15 05:59:37;;;;;;;8.10;3.30;;;5.90;59.30;;;;;;5020517;28;20532;-85
2023/03/15 06:02:26;;;;;;;7.97;3.57;;;6.10;59.00;;;;;;5063694;28;20453;-84
2023/03/15 06:05:10;;;;;;;9.63;3.43;;;5.80;59.10;;;;;;5019530;28;20456;-87
2023/03/15 06:07:39;;;;;;;4.93;3.80;;;5.70;59.80;;;;;;5023316;28;20546;-86
2023/03/15 06:10:06;;;;;;;6.37;3.90;;;5.60;60.10;;;;;;5032919;28;20852;-87
2023/03/15 06:12:33;;;;;;;4.33;3.30;;;5.70;59.60;;;;;;5038519;28;20448;-87
2023/03/15 06:15:01;;;;;;;7.63;3.93;;;5.80;59.80;;;;;;5039591;28;21004;-87
2023/03/15 06:17:28;;;;;;;6.43;3.07;;;6.10;59.70;;;;;;5026663;28;20905;-88
2023/03/15 06:19:55;;;;;;;4.50;3.33;;;6.10;59.00;;;;;;5034251;28;20476;-87
2023/03/15 06:22:23;;;;;;;8.93;2.80;;;6.20;58.80;;;;;;5033745;28;20451;-87
2023/03/15 06:24:56;;;;;;;5.90;3.73;;;6.00;58.80;;;;;;5050039;28;20985;-86
2023/03/15 06:27:24;;;;;;;4.70;2.77;;;6.10;58.70;;;;;;5043657;28;20886;-86
2023/03/15 06:29:54;;;;;;;4.73;3.00;;;5.90;58.90;;;;;;5062852;28;20494;-86
2023/03/15 06:32:23;;;;;;;4.70;3.17;;;5.60;59.50;;;;;;5043559;28;20456;-86
2023/03/15 06:34:50;;;;;;;11.37;3.60;;;5.80;59.70;;;;;;5067219;28;21001;-87
2023/03/15 06:37:17;;;;;;;7.50;3.07;;;5.90;59.20;;;;;;5053251;28;20465;-87
2023/03/15 06:39:44;;;;;;;7.53;3.33;;;5.90;59.30;;;;;;5035046;28;20547;-86
2023/03/15 06:42:12;;;;;;;4.90;3.30;;;5.90;59.40;;;;;;5041728;28;20448;-86
2023/03/15 06:44:42;;;;;;;3.40;2.70;;;5.80;59.40;;;;;;5040244;28;20475;-86
2023/03/15 06:47:09;;;;;;;3.50;2.90;;;5.90;59.00;;;;;;5040734;28;20456;-86
2023/03/15 06:49:38;;;;;;;3.50;2.30;;;6.00;59.20;;;;;;5035934;28;20463;-86
2023/03/15 06:52:06;;;;;;;3.03;2.50;;;5.80;59.50;;;;;;5041405;28;22123;-86
2023/03/15 06:54:33;;;;;;;5.13;2.93;;;5.90;59.60;;;;;;5056626;28;20467;-87
2023/03/15 06:57:00;;;;;;;4.23;3.83;;;6.10;59.30;;;;;;5039569;28;20835;-86
2023/03/15 06:59:29;;;;;;;4.17;2.50;;;6.40;59.50;;;;;;5043292;28;20530;-87
2023/03/15 07:01:56;;;;;;;4.80;2.00;;;6.50;58.00;;;;;;5039688;28;20467;-86
2023/03/15 07:04:23;;;;;;;8.73;4.60;;;6.60;57.60;;;;;;5036626;28;20863;-87
2023/03/15 07:06:49;;;;;;;5.47;2.80;;;6.60;56.90;;;;;;5051969;28;20791;-88
2023/03/15 07:09:16;;;;;;;19.27;10.50;;;6.70;58.10;;;;;;5027282;28;20874;-86
2023/03/15 07:11:43;;;;;;;10.47;4.00;;;6.70;57.70;;;;;;5031232;28;20462;-87
2023/03/15 07:14:10;;;;;;;14.90;3.70;;;7.00;57.70;;;;;;5045577;28;20506;-85
2023/03/15 07:16:40;;;;;;;10.73;3.40;;;7.30;57.80;;;;;;5066614;28;20459;-89
2023/03/15 07:19:07;;;;;;;7.70;4.50;;;7.40;57.00;;;;;;5050194;28;20506;-87
2023/03/15 07:21:34;;;;;;;5.03;3.50;;;7.40;56.70;;;;;;5039191;28;20465;-87
2023/03/15 07:24:01;;;;;;;8.60;2.53;;;7.40;57.40;;;;;;5046737;28;20467;-87
2023/03/15 07:26:28;;;;;;;10.17;3.60;;;7.40;57.20;;;;;;5041562;28;20569;-87
2023/03/15 07:28:55;;;;;;;7.67;2.57;;;7.30;57.30;;;;;;5047862;28;21222;-87
2023/03/15 07:31:22;;;;;;;5.47;2.87;;;7.10;57.80;;;;;;5041800;28;20452;-85
2023/03/15 07:33:51;;;;;;;4.50;2.20;;;6.90;58.20;;;;;;5048331;28;20475;-86
2023/03/15 07:36:18;;;;;;;5.63;3.30;;;6.90;58.70;;;;;;5036548;28;20452;-86
2023/03/15 07:38:45;;;;;;;3.30;2.27;;;6.90;58.70;;;;;;5038643;28;20452;-87
2023/03/15 07:41:11;;;;;;;13.37;2.77;;;7.10;58.80;;;;;;5055118;28;20445;-86
2023/03/15 07:43:44;;;;;;;5.87;2.40;;;7.00;58.60;;;;;;5053471;28;20962;-86
2023/03/15 07:46:14;;;;;;;8.47;2.70;;;6.70;59.50;;;;;;5054838;28;20924;-86
2023/03/15 07:48:41;;;;;;;2.73;2.30;;;6.50;61.00;;;;;;5037148;28;20981;-86
2023/03/15 07:51:10;;;;;;;4.20;2.53;;;6.60;61.20;;;;;;5019026;28;20455;-87
2023/03/15 07:53:37;;;;;;;6.53;3.00;;;6.70;62.30;;;;;;5044042;28;20480;-87
2023/03/15 07:56:04;;;;;;;7.53;2.20;;;6.70;61.30;;;;;;5017551;28;20451;-87
2023/03/15 07:58:31;;;;;;;9.57;2.43;;;6.80;61.00;;;;;;5049876;28;20441;-86
2023/03/15 08:00:58;;;;;;;3.70;2.50;;;7.00;60.90;;;;;;5035833;28;20453;-86
2023/03/15 08:03:26;;;;;;;11.93;2.90;;;6.80;61.00;;;;;;5056820;28;20480;-87
2023/03/15 08:05:53;;;;;;;10.73;2.90;;;6.90;61.20;;;;;;5038266;28;20535;-86
2023/03/15 08:08:21;;;;;;;3.20;1.97;;;6.70;60.80;;;;;;5026199;28;21020;-86
2023/03/15 08:10:48;;;;;;;5.33;2.37;;;6.70;61.50;;;;;;5039011;28;20452;-87
2023/03/15 08:13:15;;;;;;;8.80;2.47;;;6.50;62.10;;;;;;5052184;28;20471;-87
2023/03/15 08:15:45;;;;;;;9.00;4.37;;;6.60;61.90;;;;;;5050194;28;20458;-86
2023/03/15 08:18:12;;;;;;;11.47;3.83;;;6.60;62.30;;;;;;5056076;28;20445;-87
2023/03/15 08:20:39;;;;;;;6.20;3.30;;;6.60;62.80;;;;;;5051128;28;20964;-87
2023/03/15 08:23:07;;;;;;;10.90;3.10;;;7.00;62.50;;;;;;5020387;28;20463;-87
2023/03/15 08:25:39;;;;;;;3.83;2.97;;;7.00;62.30;;;;;;5048649;28;20448;-86
2023/03/15 08:28:06;;;;;;;9.67;3.30;;;7.10;60.70;;;;;;5038913;28;20479;-88
2023/03/15 08:30:33;;;;;;;8.93;4.00;;;7.20;61.00;;;;;;5023883;28;20461;-87
2023/03/15 08:33:00;;;;;;;8.53;4.03;;;7.20;61.30;;;;;;5062654;28;20444;-86
2023/03/15 08:35:27;;;;;;;10.60;4.97;;;7.10;60.60;;;;;;5037212;28;20473;-86
2023/03/15 08:37:54;;;;;;;12.40;4.67;;;7.20;60.20;;;;;;5036709;28;20589;-87
2023/03/15 08:40:24;;;;;;;37.70;18.90;;;7.20;60.70;;;;;;5047145;28;20448;-87
2023/03/15 08:42:53;;;;;;;12.63;6.67;;;7.30;60.50;;;;;;5016340;28;20822;-87
2023/03/15 08:45:20;;;;;;;9.10;4.67;;;7.20;60.90;;;;;;5033322;28;21056;-88
2023/03/15 08:47:47;;;;;;;23.93;9.57;;;7.10;62.10;;;;;;5045694;28;20444;-87
2023/03/15 08:50:15;;;;;;;19.83;6.80;;;7.10;62.40;;;;;;5040020;28;20449;-86
2023/03/15 08:52:42;;;;;;;26.47;10.27;;;7.10;62.10;;;;;;5032974;28;20975;-85
2023/03/15 08:55:13;;;;;;;84.87;24.50;;;7.10;62.30;;;;;;5063209;28;20475;-86
2023/03/15 08:57:41;;;;;;;51.37;16.00;;;6.80;63.80;;;;;;5046226;28;21073;-86
2023/03/15 09:00:14;;;;;;;31.13;10.67;;;6.90;64.50;;;;;;5031758;28;21011;-87
2023/03/15 09:02:42;;;;;;;38.03;12.27;;;7.00;63.80;;;;;;5038575;28;20455;-87
2023/03/15 09:05:10;;;;;;;59.87;22.43;;;7.00;64.80;;;;;;5024495;28;20828;-86
2023/03/15 09:07:41;;;;;;;10.53;4.27;;;7.10;63.80;;;;;;5020335;28;20452;-86
2023/03/15 09:10:12;;;;;;;7.40;2.90;;;7.10;64.50;;;;;;5055244;28;20452;-86
2023/03/15 09:12:39;;;;;;;6.77;3.50;;;7.10;64.00;;;;;;5019976;28;20883;-86
2023/03/15 09:15:10;;;;;;;13.43;5.23;;;7.20;64.40;;;;;;5020592;28;20453;-87
2023/03/15 09:17:37;;;;;;;5.30;1.83;;;7.10;64.30;;;;;;5039031;28;20801;-86
2023/03/15 09:20:13;;;;;;;3.83;2.17;;;7.30;64.40;;;;;;5031519;28;20436;-87
2023/03/15 09:22:40;;;;;;;6.10;3.37;;;7.30;64.10;;;;;;5049595;28;20456;-86
2023/03/15 09:25:08;;;;;;;10.97;4.30;;;7.40;64.00;;;;;;5031930;28;20476;-85
2023/03/15 09:27:35;;;;;;;13.17;4.60;;;7.60;63.50;;;;;;5022691;28;20464;-86
2023/03/15 09:30:04;;;;;;;9.93;4.87;;;7.40;63.20;;;;;;5055007;28;20869;-87
2023/03/15 09:32:34;;;;;;;5.30;3.03;;;7.30;63.90;;;;;;5034327;28;21145;-85
2023/03/15 09:35:02;;;;;;;8.03;3.43;;;7.50;64.70;;;;;;5031149;28;20484;-86
2023/03/15 09:37:29;;;;;;;5.20;3.20;;;7.40;63.20;;;;;;5024476;28;20992;-87
2023/03/15 09:39:56;;;;;;;4.00;2.77;;;7.50;63.70;;;;;;5051118;28;20462;-86
2023/03/15 09:42:29;;;;;;;6.27;3.07;;;7.50;63.20;;;;;;5021325;28;21265;-87
2023/03/15 09:45:06;;;;;;;6.47;3.50;;;7.30;63.60;;;;;;5019550;28;20461;-86
2023/03/15 09:47:42;;;;;;;8.40;3.03;;;7.50;64.10;;;;;;5017901;28;20477;-87
2023/03/15 09:50:20;;;;;;;6.00;3.37;;;7.30;64.20;;;;;;5028498;28;20852;-86
2023/03/15 09:52:51;;;;;;;4.63;3.10;;;7.60;64.80;;;;;;5057014;28;20548;-86
2023/03/15 09:55:22;;;;;;;8.53;6.40;;;7.80;63.60;;;;;;5030919;28;20468;-87
2023/03/15 09:57:52;;;;;;;4.47;3.60;;;7.90;63.60;;;;;;5050487;28;20471;-87
2023/03/15 10:00:21;;;;;;;3.03;2.77;;;8.10;63.20;;;;;;5060403;28;20893;-86
2023/03/15 10:02:58;;;;;;;4.83;3.50;;;8.10;63.80;;;;;;5022508;28;20463;-86
2023/03/15 10:05:34;;;;;;;3.97;3.50;;;7.90;63.90;;;;;;5027722;28;20749;-86
2023/03/15 10:08:01;;;;;;;2.80;2.47;;;7.90;62.70;;;;;;5048130;28;20499;-87
2023/03/15 10:10:34;;;;;;;3.83;2.40;;;7.70;63.10;;;;;;5034068;28;20436;-87
2023/03/15 10:13:14;;;;;;;4.43;2.83;;;7.50;63.30;;;;;;5017162;28;20464;-86
2023/03/15 10:15:53;;;;;;;4.13;2.60;;;7.40;64.30;;;;;;5069125;28;20821;-86
2023/03/15 10:18:34;;;;;;;4.80;3.13;;;7.50;64.90;;;;;;5038598;28;20671;-86
2023/03/15 10:21:05;;;;;;;4.80;2.33;;;7.30;63.50;;;;;;5031686;28;20448;-87
2023/03/15 10:23:40;;;;;;;4.00;2.93;;;7.10;63.80;;;;;;5052901;28;20978;-86
2023/03/15 10:26:14;;;;;;;3.80;2.53;;;7.20;64.70;;;;;;5035568;28;20966;-86
2023/03/15 10:28:41;;;;;;;3.07;2.47;;;7.50;64.80;;;;;;5038505;28;20475;-87
2023/03/15 10:31:14;;;;;;;7.97;4.90;;;7.60;65.10;;;;;;5054852;28;20456;-87
2023/03/15 10:33:43;;;;;;;4.07;3.57;;;7.50;64.90;;;;;;5025990;28;20464;-87
2023/03/15 10:36:16;;;;;;;3.87;2.83;;;7.60;64.80;;;;;;5067527;28;20457;-86
2023/03/15 10:38:44;;;;;;;5.13;2.77;;;7.60;64.10;;;;;;5020606;28;20447;-86
2023/03/15 10:41:13;;;;;;;5.60;2.93;;;7.60;64.40;;;;;;5053668;28;20452;-86
2023/03/15 10:43:41;;;;;;;5.33;2.37;;;7.70;64.30;;;;;;5036841;28;20842;-86
2023/03/15 10:46:10;;;;;;;4.97;2.60;;;7.70;63.50;;;;;;5036565;28;20869;-86
2023/03/15 10:48:39;;;;;;;4.67;3.33;;;7.80;64.70;;;;;;5029867;28;20464;-86
2023/03/15 10:51:15;;;;;;;4.20;2.57;;;7.90;64.70;;;;;;5039230;28;20452;-87
2023/03/15 10:53:52;;;;;;;2.50;2.27;;;8.10;63.00;;;;;;5038061;28;20915;-87
2023/03/15 10:56:24;;;;;;;3.50;2.53;;;8.20;62.60;;;;;;5057702;28;20799;-86
2023/03/15 10:58:54;;;;;;;3.80;2.33;;;8.20;61.70;;;;;;5039977;28;20498;-86
2023/03/15 11:01:26;;;;;;;2.80;2.30;;;8.20;62.80;;;;;;5039814;28;20458;-86
2023/03/15 11:04:13;;;;;;;3.93;2.87;;;8.30;61.70;;;;;;5041796;28;20463;-86
2023/03/15 11:06:44;;;;;;;3.50;2.67;;;8.30;61.20;;;;;;5042575;28;20453;-87
2023/03/15 11:09:13;;;;;;;2.83;2.43;;;8.30;61.70;;;;;;5051890;28;20491;-87
2023/03/15 11:11:59;;;;;;;3.50;2.30;;;8.30;61.20;;;;;;5038334;28;21247;-87
2023/03/15 11:14:32;;;;;;;9.43;4.50;;;8.30;60.90;;;;;;5021076;28;20649;-87
2023/03/15 11:17:00;;;;;;;8.63;3.80;;;8.30;60.80;;;;;;5034767;28;20449;-87
2023/03/15 11:19:29;;;;;;;7.23;5.23;;;8.50;60.70;;;;;;5031428;28;20950;-87
2023/03/15 11:21:59;;;;;;;4.40;3.00;;;8.50;59.80;;;;;;5040686;28;20452;-86
2023/03/15 11:24:28;;;;;;;3.87;3.33;;;8.30;59.20;;;;;;5039472;28;20899;-86
2023/03/15 11:27:00;;;;;;;4.13;3.37;;;8.20;60.60;;;;;;5046159;28;20456;-86
2023/03/15 11:29:31;;;;;;;4.40;3.00;;;8.10;60.80;;;;;;5042082;28;20459;-86
2023/03/15 11:32:01;;;;;;;3.70;2.20;;;8.00;60.30;;;;;;5022428;28;20489;-85
2023/03/15 11:34:40;;;;;;;2.90;2.53;;;8.10;60.90;;;;;;5053638;28;20500;-86
2023/03/15 11:37:17;;;;;;;2.83;2.33;;;7.70;60.50;;;;;;5070418;28;20456;-86
2023/03/15 11:39:51;;;;;;;2.23;2.03;;;7.80;62.40;;;;;;5024121;28;20450;-85
2023/03/15 11:42:24;;;;;;;4.43;3.03;;;7.80;62.50;;;;;;5043539;28;20453;-87
2023/03/15 11:44:57;;;;;;;3.90;2.70;;;7.90;61.70;;;;;;5022617;28;20479;-86
2023/03/15 11:47:39;;;;;;;4.40;2.97;;;8.30;62.10;;;;;;5028756;28;20457;-86
2023/03/15 11:50:07;;;;;;;3.10;2.90;;;8.80;62.20;;;;;;5051633;28;20468;-84
2023/03/15 11:52:35;;;;;;;4.53;3.23;;;9.10;59.90;;;;;;5052771;28;20451;-88
2023/03/15 11:55:03;;;;;;;4.07;3.77;;;9.10;59.80;;;;;;5057662;28;20731;-86
2023/03/15 11:57:42;;;;;;;7.00;3.70;;;9.10;59.50;;;;;;5053433;28;20531;-85
2023/03/15 12:00:44;;;;;;;2.63;2.40;;;9.20;58.50;;;;;;5024342;28;20469;-85
2023/03/15 12:03:35;;;;;;;3.60;2.50;;;9.20;58.30;;;;;;5024417;28;20440;-87
2023/03/15 12:06:24;;;;;;;3.23;2.93;;;9.20;58.90;;;;;;5036317;28;20474;-86
2023/03/15 12:08:53;;;;;;;4.50;2.73;;;9.30;57.30;;;;;;5056959;28;20490;-86
2023/03/15 12:11:41;;;;;;;4.27;3.73;;;9.20;58.10;;;;;;5054368;28;20444;-86
2023/03/15 12:14:27;;;;;;;6.07;3.87;;;9.10;58.30;;;;;;5032047;28;20496;-86
2023/03/15 12:17:37;;;;;;;4.03;3.03;;;8.80;57.70;;;;;;5038291;28;21023;-86
2023/03/15 12:20:13;;;;;;;3.03;2.73;;;9.00;58.80;;;;;;5022418;28;20449;-86
2023/03/15 12:22:44;;;;;;;11.70;8.33;;;9.00;58.20;;;;;;5057907;28;21013;-86
2023/03/15 12:25:16;;;;;;;3.50;3.20;;;9.10;58.60;;;;;;5039446;28;20459;-86
2023/03/15 12:27:47;;;;;;;2.93;2.70;;;9.40;57.50;;;;;;5019846;28;20806;-86
2023/03/15 12:30:21;;;;;;;3.00;2.70;;;9.40;57.00;;;;;;5041720;28;20557;-87
2023/03/15 12:32:52;;;;;;;2.60;2.40;;;9.40;56.80;;;;;;5030635;28;20456;-87
2023/03/15 12:35:23;;;;;;;2.50;2.30;;;9.10;57.00;;;;;;5049025;28;20476;-88
2023/03/15 12:37:52;;;;;;;2.50;2.30;;;9.20;57.10;;;;;;5024116;28;20452;-87
2023/03/15 12:40:53;;;;;;;3.83;3.27;;;9.40;57.10;;;;;;5054204;28;20456;-87
2023/03/15 12:43:37;;;;;;;3.17;2.87;;;9.40;56.20;;;;;;4979166;28;20953;-87
2023/03/15 12:46:05;;;;;;;3.33;2.90;;;9.70;58.40;;;;;;5021107;28;20471;-88
2023/03/15 12:48:32;;;;;;;2.70;2.10;;;9.90;56.90;;;;;;5054866;28;20481;-86
2023/03/15 12:51:05;;;;;;;3.57;3.27;;;10.10;55.30;;;;;;5020289;28;20468;-87
2023/03/15 12:53:53;;;;;;;6.40;3.47;;;10.20;54.20;;;;;;5040190;28;20569;-87
2023/03/15 12:56:38;;;;;;;3.93;2.97;;;10.10;53.90;;;;;;5043412;28;20471;-87
2023/03/15 12:59:22;;;;;;;4.37;3.60;;;10.20;54.20;;;;;;5032372;28;20735;-87
2023/03/15 13:01:51;;;;;;;3.70;3.30;;;10.10;53.80;;;;;;5018449;28;20760;-88
2023/03/15 13:04:18;;;;;;;4.10;3.40;;;10.00;54.30;;;;;;5040741;28;20739;-89
2023/03/15 13:06:57;;;;;;;4.77;3.77;;;10.10;55.20;;;;;;5057739;28;20444;-87
2023/03/15 13:09:53;;;;;;;4.00;3.53;;;10.20;55.50;;;;;;5054010;28;20464;-88
2023/03/15 13:12:26;;;;;;;8.07;4.63;;;10.30;54.00;;;;;;5051437;28;20481;-86
2023/03/15 13:15:00;;;;;;;5.00;2.90;;;10.70;55.20;;;;;;5051692;28;20479;-87
2023/03/15 13:17:36;;;;;;;3.83;3.43;;;10.90;54.00;;;;;;5025459;28;20448;-87
2023/03/15 13:20:23;;;;;;;4.50;4.10;;;11.00;51.80;;;;;;5040129;28;20991;-87
2023/03/15 13:22:55;;;;;;;4.63;4.17;;;11.00;52.10;;;;;;5041412;28;20463;-88